createdAt,value
2022-08-17T00:02:26.916Z,98660.22
2022-08-17T00:05:32.012Z,98654.31
2022-08-17T00:08:39.449Z,98651.59
2022-08-17T00:11:44.045Z,98658.87
2022-08-17T00:15:10.484Z,98653.50
2022-08-17T00:18:57.540Z,98655.09
2022-08-17T00:22:31.233Z,98652.69
2022-08-17T00:25:00.843Z,98650.78
2022-08-17T00:28:04.302Z,98648.94
2022-08-17T00:31:08.467Z,98647.59
2022-08-17T00:34:10.717Z,98645.69
2022-08-17T00:37:12.900Z,98646.50
2022-08-17T00:40:15.724Z,98634.94
2022-08-17T00:43:21.023Z,98638.47
2022-08-17T00:46:30.062Z,98635.78
2022-08-17T00:49:32.387Z,98632.81
2022-08-17T00:52:37.873Z,98638.19
2022-08-17T00:55:40.284Z,98638.47
2022-08-17T00:58:42.907Z,98641.41
2022-08-17T01:01:45.554Z,98641.94
2022-08-17T01:04:50.167Z,98638.72
2022-08-17T01:07:53.063Z,98645.47
2022-08-17T01:11:01.828Z,98644.63
2022-08-17T01:14:04.336Z,98647.59
2022-08-17T01:17:07.332Z,98647.59
2022-08-17T01:20:09.968Z,98648.38
2022-08-17T01:23:12.250Z,98651.34
2022-08-17T01:26:23.178Z,98652.44
2022-08-17T01:29:26.013Z,98654.59
2022-08-17T01:32:30.461Z,98654.31
2022-08-17T01:35:32.702Z,98655.12
2022-08-17T01:38:36.633Z,98663.47
2022-08-17T01:41:41.074Z,98652.41
2022-08-17T01:44:43.374Z,98656.19
2022-08-17T01:47:45.899Z,98661.03
2022-08-17T01:50:50.071Z,98661.53
2022-08-17T01:53:54.875Z,98671.78
2022-08-17T01:56:57.313Z,98665.34
2022-08-17T01:59:59.863Z,98663.66
2022-08-17T02:03:02.088Z,98663.16
2022-08-17T02:06:05.988Z,98671.53
2022-08-17T02:09:29.636Z,98663.47
2022-08-17T02:12:37.242Z,98655.38
2022-08-17T02:15:51.123Z,98662.84
2022-08-17T02:18:53.402Z,98665.00
2022-08-17T02:21:56.379Z,98658.28
2022-08-17T02:25:02.189Z,98659.13
2022-08-17T02:28:05.244Z,98657.50
2022-08-17T02:31:11.175Z,98646.22
2022-08-17T02:34:14.082Z,98650.97
2022-08-17T02:37:19.741Z,98650.44
2022-08-17T02:40:35.993Z,98649.63
2022-08-17T02:43:39.189Z,98659.34
2022-08-17T02:46:41.428Z,98654.19
2022-08-17T02:49:54.051Z,98657.69
2022-08-17T02:53:01.916Z,98657.16
2022-08-17T02:56:05.117Z,98660.09
2022-08-17T02:59:07.332Z,98657.13
2022-08-17T03:02:11.689Z,98658.75
2022-08-17T03:05:16.405Z,98656.59
2022-08-17T03:08:19.711Z,98647.75
2022-08-17T03:11:22.036Z,98662.22
2022-08-17T03:14:26.236Z,98661.72
2022-08-17T03:17:28.653Z,98663.03
2022-08-17T03:20:32.324Z,98658.16
2022-08-17T03:23:40.929Z,98667.59
2022-08-17T03:26:43.191Z,98663.00
2022-08-17T03:29:45.782Z,98666.75
2022-08-17T03:32:50.571Z,98667.28
2022-08-17T03:35:52.843Z,98681.53
2022-08-17T03:38:55.019Z,98677.72
2022-08-17T03:42:32.435Z,98688.19
2022-08-17T03:45:54.580Z,98684.19
2022-08-17T03:49:15.316Z,98686.66
2022-08-17T03:52:36.382Z,98689.28
2022-08-17T03:55:59.289Z,98691.19
2022-08-17T03:59:01.488Z,98692.03
2022-08-17T04:02:09.544Z,98691.78
2022-08-17T04:05:11.814Z,98698.25
2022-08-17T04:08:14.117Z,98696.66
2022-08-17T04:11:16.300Z,98695.19
2022-08-17T04:14:18.680Z,98699.22
2022-08-17T04:17:25.767Z,98703.88
2022-08-17T04:20:28.453Z,98702.94
2022-08-17T04:23:33.791Z,98698.16
2022-08-17T04:26:53.353Z,98701.38
2022-08-17T04:29:56.528Z,98702.38
2022-08-17T04:33:05.765Z,98706.13
2022-08-17T04:36:08.993Z,98715.03
2022-08-17T04:39:11.454Z,98709.81
2022-08-17T04:42:17.340Z,98715.06
2022-08-17T04:45:19.559Z,98708.69
2022-08-17T04:48:21.900Z,98706.22
2022-08-17T04:51:30.144Z,98704.75
2022-08-17T04:54:32.401Z,98711.44
2022-08-17T04:57:39.407Z,98716.84
2022-08-17T05:00:44.059Z,98717.25
2022-08-17T05:03:46.290Z,98724.28
2022-08-17T05:06:49.620Z,98722.06
2022-08-17T05:09:51.787Z,98725.19
2022-08-17T05:13:06.977Z,98727.38
2022-08-17T05:16:09.738Z,98728.59
2022-08-17T05:19:11.953Z,98738.03
2022-08-17T05:22:14.701Z,98742.63
2022-08-17T05:25:26.707Z,98734.81
2022-08-17T05:28:29.210Z,98744.50
2022-08-17T05:31:31.888Z,98739.69
2022-08-17T05:34:34.067Z,98743.75
2022-08-17T05:37:36.297Z,98744.13
2022-08-17T05:40:38.863Z,98741.06
2022-08-17T05:43:42.186Z,98738.66
2022-08-17T05:46:49.367Z,98745.63
2022-08-17T05:49:51.834Z,98743.06
2022-08-17T05:53:13.252Z,98746.28
2022-08-17T05:56:30.477Z,98733.63
2022-08-17T05:59:42.128Z,98743.44
2022-08-17T06:02:47.730Z,98752.84
2022-08-17T06:06:39.860Z,98753.75
2022-08-17T06:10:17.824Z,98742.94
2022-08-17T06:13:29.205Z,98744.91
2022-08-17T06:16:36.305Z,98749.16
2022-08-17T06:19:39.903Z,98739.44
2022-08-17T06:22:46.494Z,98749.34
2022-08-17T06:25:52.394Z,98745.13
2022-08-17T06:28:59.641Z,98750.87
2022-08-17T06:32:02.707Z,98746.41
2022-08-17T06:35:10.625Z,98748.56
2022-08-17T06:38:38.026Z,98752.97
2022-08-17T06:42:59.919Z,98753.78
2022-08-17T06:45:43.946Z,98758.22
2022-08-17T06:49:19.815Z,98756.81
2022-08-17T06:52:46.185Z,98760.88
2022-08-17T06:56:06.468Z,98765.19
2022-08-17T06:59:11.154Z,98761.13
2022-08-17T07:02:18.240Z,98764.81
2022-08-17T07:05:25.224Z,98767.03
2022-08-17T07:08:45.988Z,98766.56
2022-08-17T07:12:04.142Z,98763.69
2022-08-17T07:15:09.356Z,98761.72
2022-08-17T07:18:11.666Z,98761.34
2022-08-17T07:21:38.044Z,98766.41
2022-08-17T07:24:52.842Z,98762.78
2022-08-17T07:27:59.856Z,98766.72
2022-08-17T07:31:04.712Z,98770.28
2022-08-17T07:34:11.089Z,98776.28
2022-08-17T07:37:19.337Z,98767.84
2022-08-17T07:40:35.129Z,98768.75
2022-08-17T07:43:46.726Z,98765.03
2022-08-17T07:47:12.342Z,98775.72
2022-08-17T07:50:28.926Z,98781.66
2022-08-17T07:53:31.974Z,98774.59
2022-08-17T07:56:44.452Z,98779.31
2022-08-17T08:00:01.864Z,98777.12
2022-08-17T08:03:13.454Z,98774.94
2022-08-17T08:06:23.154Z,98777.94
2022-08-17T08:09:34.462Z,98781.81
2022-08-17T08:12:40.506Z,98780.44
2022-08-17T08:15:54.751Z,98787.16
2022-08-17T08:18:59.719Z,98777.81
2022-08-17T08:22:13.062Z,98784.66
2022-08-17T08:25:23.260Z,98777.72
2022-08-17T08:28:27.489Z,98780.22
2022-08-17T08:31:51.327Z,98775.72
2022-08-17T08:35:09.678Z,98772.53
2022-08-17T08:38:30.214Z,98780.19
2022-08-17T08:41:44.910Z,98776.47
2022-08-17T08:45:14.716Z,98780.06
2022-08-17T08:48:55.739Z,98774.59
2022-08-17T08:52:00.148Z,98783.25
2022-08-17T08:55:34.526Z,98777.53
2022-08-17T08:58:47.272Z,98775.84
2022-08-17T09:01:59.861Z,98779.56
2022-08-17T09:05:17.255Z,98773.81
2022-08-17T09:08:33.339Z,98779.19
2022-08-17T09:12:02.850Z,98772.00
2022-08-17T09:15:29.282Z,98773.94
2022-08-17T09:19:02.770Z,98770.81
2022-08-17T09:22:17.593Z,98767.63
2022-08-17T09:25:27.015Z,98761.31
2022-08-17T09:28:34.736Z,98760.63
2022-08-17T09:31:57.993Z,98767.59
2022-08-17T09:35:15.301Z,98768.06
2022-08-17T09:38:32.487Z,98759.66
2022-08-17T09:42:19.567Z,98759.25
2022-08-17T09:45:28.711Z,98765.78
2022-08-17T09:48:33.672Z,98757.38
2022-08-17T09:51:44.025Z,98755.84
2022-08-17T09:54:46.244Z,98757.50
2022-08-17T09:58:11.209Z,98756.94
2022-08-17T10:01:25.252Z,98754.72
2022-08-17T10:04:47.352Z,98748.31
2022-08-17T10:08:01.771Z,98749.63
2022-08-17T10:11:33.285Z,98751.44
2022-08-17T10:14:44.035Z,98745.00
2022-08-17T10:18:15.345Z,98743.16
2022-08-17T10:21:37.715Z,98752.34
2022-08-17T10:25:22.331Z,98761.72
2022-08-17T10:28:30.502Z,98752.38
2022-08-17T10:31:41.345Z,98751.03
2022-08-17T10:34:52.878Z,98753.50
2022-08-17T10:37:59.308Z,98759.34
2022-08-17T10:41:04.199Z,98756.72
2022-08-17T10:44:37.289Z,98748.56
2022-08-17T10:48:06.218Z,98742.53
2022-08-17T10:51:36.667Z,98751.28
2022-08-17T10:54:41.689Z,98748.00
2022-08-17T10:57:46.896Z,98745.53
2022-08-17T11:00:52.511Z,98743.53
2022-08-17T11:03:57.266Z,98743.78
2022-08-17T11:07:35.348Z,98746.06
2022-08-17T11:10:46.442Z,98743.19
2022-08-17T11:14:17.300Z,98728.56
2022-08-17T11:17:44.555Z,98734.56
2022-08-17T11:21:35.016Z,98738.09
2022-08-17T11:24:38.521Z,98733.84
2022-08-17T11:27:41.773Z,98737.22
2022-08-17T11:30:49.094Z,98730.03
2022-08-17T11:34:14.820Z,98736.59
2022-08-17T11:37:30.992Z,98729.19
2022-08-17T11:41:04.011Z,98719.87
2022-08-17T11:44:10.695Z,98715.91
2022-08-17T11:48:27.668Z,98707.81
2022-08-17T11:51:34.835Z,98710.47
2022-08-17T11:54:41.645Z,98708.94
2022-08-17T11:57:46.317Z,98701.53
2022-08-17T12:01:03.182Z,98707.25
2022-08-17T12:04:28.059Z,98694.47
2022-08-17T12:07:33.423Z,98693.34
2022-08-17T12:10:40.090Z,98704.19
2022-08-17T12:13:47.086Z,98689.50
2022-08-17T12:17:09.365Z,98689.87
2022-08-17T12:20:21.702Z,98688.38
2022-08-17T12:23:44.146Z,98673.41
2022-08-17T12:27:01.191Z,98672.63
2022-08-17T12:30:11.577Z,98671.94
2022-08-17T12:33:25.629Z,98671.19
2022-08-17T12:36:31.327Z,98671.84
2022-08-17T12:39:34.364Z,98658.19
2022-08-17T12:42:40.644Z,98662.13
2022-08-17T12:45:43.668Z,98665.91
2022-08-17T12:48:59.074Z,98669.75
2022-08-17T12:52:20.479Z,98665.91
2022-08-17T12:55:25.325Z,98669.31
2022-08-17T12:58:47.659Z,98663.56
2022-08-17T13:01:51.121Z,98656.31
2022-08-17T13:04:54.865Z,98646.31
2022-08-17T13:07:59.593Z,98668.75
2022-08-17T13:11:12.183Z,98666.41
2022-08-17T13:14:18.695Z,98659.53
2022-08-17T13:17:41.596Z,98650.59
2022-08-17T13:20:54.271Z,98648.97
2022-08-17T13:24:17.238Z,98655.38
2022-08-17T13:27:21.041Z,98648.66
2022-08-17T13:30:28.608Z,98650.19
2022-08-17T13:33:43.399Z,98645.06
2022-08-17T13:36:50.680Z,98649.69
2022-08-17T13:40:00.591Z,98640.41
2022-08-17T13:43:03.787Z,98642.66
2022-08-17T13:46:22.396Z,98639.22
2022-08-17T13:49:25.945Z,98629.34
2022-08-17T13:52:51.942Z,98635.59
2022-08-17T13:55:58.432Z,98636.81
2022-08-17T13:59:12.736Z,98636.91
2022-08-17T14:02:18.256Z,98630.94
2022-08-17T14:05:20.992Z,98633.66
2022-08-17T14:08:24.209Z,98628.25
2022-08-17T14:11:27.002Z,98624.47
2022-08-17T14:14:30.283Z,98631.50
2022-08-17T14:17:38.124Z,98629.91
2022-08-17T14:20:42.876Z,98623.38
2022-08-17T14:23:49.055Z,98628.47
2022-08-17T14:26:59.312Z,98629.78
2022-08-17T14:30:02.518Z,98623.50
2022-08-17T14:33:06.128Z,98621.09
2022-08-17T14:36:09.621Z,98617.00
2022-08-17T14:39:13.140Z,98624.28
2022-08-17T14:42:16.652Z,98620.53
2022-08-17T14:45:31.494Z,98613.78
2022-08-17T14:48:40.816Z,98614.22
2022-08-17T14:51:44.152Z,98623.06
2022-08-17T14:54:51.562Z,98621.69
2022-08-17T14:57:54.600Z,98621.28
2022-08-17T15:00:58.041Z,98624.66
2022-08-17T15:04:01.241Z,98620.16
2022-08-17T15:07:04.699Z,98626.94
2022-08-17T15:10:09.813Z,98629.72
2022-08-17T15:13:17.932Z,98625.28
2022-08-17T15:16:22.861Z,98621.09
2022-08-17T15:19:29.220Z,98617.19
2022-08-17T15:22:37.514Z,98621.37
2022-08-17T15:25:40.395Z,98623.34
2022-08-17T15:28:49.976Z,98632.72
2022-08-17T15:32:00.619Z,98620.53
2022-08-17T15:35:05.574Z,98625.97
2022-08-17T15:38:12.166Z,98623.84
2022-08-17T15:41:18.161Z,98630.69
2022-08-17T15:44:20.927Z,98628.87
2022-08-17T15:47:32.734Z,98625.88
2022-08-17T15:50:36.038Z,98616.38
2022-08-17T15:53:39.436Z,98623.38
2022-08-17T15:56:42.092Z,98631.25
2022-08-17T15:59:44.781Z,98623.06
2022-08-17T16:03:32.030Z,98621.47
2022-08-17T16:06:11.634Z,98628.19
2022-08-17T16:09:14.570Z,98630.16
2022-08-17T16:12:20.112Z,98624.84
2022-08-17T16:15:22.652Z,98620.44
2022-08-17T16:18:31.383Z,98619.13
2022-08-17T16:21:42.786Z,98628.16
2022-08-17T16:24:57.223Z,98622.50
2022-08-17T16:28:00.256Z,98621.59
2022-08-17T16:31:02.701Z,98625.00
2022-08-17T16:34:17.798Z,98622.91
2022-08-17T16:37:20.803Z,98624.41
2022-08-17T16:40:26.168Z,98625.22
2022-08-17T16:43:30.022Z,98621.41
2022-08-17T16:46:32.285Z,98628.63
2022-08-17T16:49:36.605Z,98623.06
2022-08-17T16:52:41.026Z,98615.81
2022-08-17T16:55:48.180Z,98619.56
2022-08-17T16:58:50.916Z,98627.38
2022-08-17T17:01:53.526Z,98625.97
2022-08-17T17:05:26.326Z,98629.28
2022-08-17T17:08:43.597Z,98625.66
2022-08-17T17:11:50.956Z,98630.78
2022-08-17T17:14:59.323Z,98631.06
2022-08-17T17:18:07.078Z,98632.06
2022-08-17T17:21:14.920Z,98631.44
2022-08-17T17:24:32.521Z,98635.78
2022-08-17T17:27:42.987Z,98628.34
2022-08-17T17:30:57.358Z,98643.97
2022-08-17T17:34:07.355Z,98644.03
2022-08-17T17:37:15.873Z,98641.97
2022-08-17T17:40:28.675Z,98644.22
2022-08-17T17:43:40.021Z,98646.31
2022-08-17T17:46:45.276Z,98650.03
2022-08-17T17:49:50.711Z,98661.69
2022-08-17T17:53:08.964Z,98665.94
2022-08-17T17:56:43.648Z,98663.56
2022-08-17T18:00:04.718Z,98664.44
2022-08-17T18:03:22.308Z,98663.53
2022-08-17T18:06:32.169Z,98664.81
2022-08-17T18:09:51.662Z,98648.12
2022-08-17T18:13:14.144Z,98651.06
2022-08-17T18:16:16.507Z,98653.66
2022-08-17T18:19:24.993Z,98664.59
2022-08-17T18:22:27.840Z,98663.66
2022-08-17T18:25:39.769Z,98675.72
2022-08-17T18:28:44.035Z,98664.53
2022-08-17T18:31:46.546Z,98667.75
2022-08-17T18:34:57.845Z,98673.06
2022-08-17T18:38:23.235Z,98682.03
2022-08-17T18:41:30.761Z,98682.69
2022-08-17T18:44:35.729Z,98686.78
2022-08-17T18:47:52.782Z,98693.59
2022-08-17T18:50:58.969Z,98686.34
2022-08-17T18:54:03.960Z,98684.69
2022-08-17T18:57:09.989Z,98690.03
2022-08-17T19:00:16.536Z,98690.97
2022-08-17T19:03:25.380Z,98687.66
2022-08-17T19:06:34.354Z,98694.62
2022-08-17T19:09:48.952Z,98695.16
2022-08-17T19:13:00.832Z,98700.06
2022-08-17T19:16:15.849Z,98699.59
2022-08-17T19:19:23.652Z,98706.28
2022-08-17T19:22:31.235Z,98706.72
2022-08-17T19:25:38.418Z,98704.47
2022-08-17T19:29:10.954Z,98710.38
2022-08-17T19:32:16.216Z,98710.41
2022-08-17T19:35:20.258Z,98713.13
2022-08-17T19:38:34.421Z,98711.28
2022-08-17T19:42:02.105Z,98714.31
2022-08-17T19:45:20.823Z,98717.62
2022-08-17T19:48:53.911Z,98715.72
2022-08-17T19:52:01.853Z,98726.84
2022-08-17T19:55:10.258Z,98726.78
2022-08-17T19:58:18.345Z,98718.63
2022-08-17T20:01:29.859Z,98724.78
2022-08-17T20:04:40.262Z,98719.47
2022-08-17T20:07:46.475Z,98722.78
2022-08-17T20:11:07.274Z,98715.31
2022-08-17T20:14:34.983Z,98720.13
2022-08-17T20:17:40.836Z,98712.31
2022-08-17T20:20:59.703Z,98711.50
2022-08-17T20:24:13.204Z,98722.19
2022-08-17T20:27:17.820Z,98719.47
2022-08-17T20:30:23.086Z,98718.25
2022-08-17T20:33:29.990Z,98721.91
2022-08-17T20:36:36.887Z,98722.75
2022-08-17T20:39:44.706Z,98717.72
2022-08-17T20:42:47.280Z,98711.16
2022-08-17T20:46:07.838Z,98701.03
2022-08-17T20:49:19.583Z,98702.25
2022-08-17T20:52:45.806Z,98711.72
2022-08-17T20:55:52.233Z,98705.72
2022-08-17T20:58:55.590Z,98696.78
2022-08-17T21:02:17.615Z,98698.97
2022-08-17T21:05:38.328Z,98696.72
2022-08-17T21:08:54.348Z,98700.66
2022-08-17T21:12:04.232Z,98702.19
2022-08-17T21:15:42.784Z,98704.28
2022-08-17T21:19:05.109Z,98706.34
2022-08-17T21:22:33.228Z,98705.09
2022-08-17T21:26:09.210Z,98708.13
2022-08-17T21:29:32.419Z,98705.63
2022-08-17T21:32:37.834Z,98708.34
2022-08-17T21:35:50.212Z,98707.94
2022-08-17T21:39:13.624Z,98709.12
2022-08-17T21:42:16.343Z,98709.34
2022-08-17T21:45:24.426Z,98716.88
2022-08-17T21:48:28.598Z,98723.22
2022-08-17T21:51:32.544Z,98728.25
2022-08-17T21:54:38.757Z,98726.13
2022-08-17T21:57:41.815Z,98721.81
2022-08-17T22:01:37.888Z,98730.19
2022-08-17T22:04:41.781Z,98732.03
2022-08-17T22:07:47.939Z,98725.56
2022-08-17T22:10:51.560Z,98726.72
2022-08-17T22:14:00.699Z,98731.44
2022-08-17T22:17:18.285Z,98747.00
2022-08-17T22:20:21.350Z,98752.84
2022-08-17T22:23:58.673Z,98762.28
2022-08-17T22:27:07.551Z,98759.00
2022-08-17T22:30:27.419Z,98763.47
2022-08-17T22:33:43.734Z,98765.78
2022-08-17T22:36:46.019Z,98762.81
2022-08-17T22:39:58.388Z,98759.47
2022-08-17T22:43:03.391Z,98775.06
2022-08-17T22:46:08.032Z,98770.16
2022-08-17T22:49:10.327Z,98778.50
2022-08-17T22:52:15.942Z,98776.47
2022-08-17T22:55:37.063Z,98780.91
2022-08-17T22:59:17.592Z,98782.81
2022-08-17T23:02:27.752Z,98790.84
2022-08-17T23:05:31.478Z,98791.41
2022-08-17T23:08:39.318Z,98791.31
2022-08-17T23:11:50.031Z,98799.41
2022-08-17T23:14:58.479Z,98797.13
2022-08-17T23:18:04.851Z,98804.53
2022-08-17T23:21:08.546Z,98812.81
2022-08-17T23:24:21.795Z,98809.03
2022-08-17T23:27:29.430Z,98827.59
2022-08-17T23:30:33.896Z,98822.97
2022-08-17T23:33:38.616Z,98811.13
2022-08-17T23:36:41.386Z,98812.94
2022-08-17T23:39:45.163Z,98809.50
2022-08-17T23:42:47.492Z,98801.97
2022-08-17T23:45:49.711Z,98801.19
2022-08-17T23:48:53.541Z,98791.44
2022-08-17T23:51:55.859Z,98792.84
2022-08-17T23:54:58.747Z,98796.47
2022-08-17T23:58:02.769Z,98789.84
